UAL1487 KORD-KDEN
Flight info
| Callsign | UAL1487 |
|---|---|
| Flight time | 2h 53m |
| Altitude | 36000 |
| Route | OLINN OREOS OBENE OGALE BRWRY LAWGR3 |
| Aircraft | B739/M-SDE2E3FGHIRWXY/LB1 |
Departure
| Time | 2026-05-07 19:59 |
|---|---|
| Airport | Chicago O'Hare International Airport (KORD) |
Arrival
| Time | 2026-05-07 22:53 |
|---|---|
| Airport | Denver International Airport (KDEN) |
| Time | Latitude | Longitude | Altitude | Speed | Heading |
|---|---|---|---|---|---|
| 2026-05-07 18:59 | 41.96152 | -87.91247 | 670 ft | 0 kts | 181° |
| 2026-05-07 19:29 | 41.96153 | -87.91247 | 670 ft | 0 kts | 181° |
| 2026-05-07 19:29 | 41.96162 | -87.91247 | 668 ft | 3 kts | 179° |
| 2026-05-07 19:29 | 41.96182 | -87.91247 | 668 ft | 3 kts | 186° |
| 2026-05-07 19:29 | 41.96201 | -87.91241 | 668 ft | 3 kts | 205° |
| 2026-05-07 19:30 | 41.96219 | -87.91229 | 669 ft | 3 kts | 205° |
| 2026-05-07 19:30 | 41.96237 | -87.91219 | 667 ft | 3 kts | 198° |
| 2026-05-07 19:30 | 41.96256 | -87.91212 | 666 ft | 3 kts | 186° |
| 2026-05-07 19:30 | 41.96274 | -87.91211 | 666 ft | 2 kts | 180° |
| 2026-05-07 19:31 | 41.96282 | -87.91211 | 666 ft | 0 kts | 180° |
| 2026-05-07 19:40 | 41.96277 | -87.91211 | 667 ft | 2 kts | 180° |
| 2026-05-07 19:41 | 41.96262 | -87.91210 | 667 ft | 2 kts | 178° |
| 2026-05-07 19:41 | 41.96247 | -87.91207 | 668 ft | 2 kts | 166° |
| 2026-05-07 19:41 | 41.96234 | -87.91198 | 669 ft | 2 kts | 146° |
| 2026-05-07 19:41 | 41.96226 | -87.91183 | 670 ft | 2 kts | 120° |
| 2026-05-07 19:42 | 41.96222 | -87.91166 | 670 ft | 2 kts | 103° |
| 2026-05-07 19:42 | 41.96220 | -87.91148 | 670 ft | 2 kts | 97° |
| 2026-05-07 19:42 | 41.96220 | -87.91130 | 671 ft | 2 kts | 93° |
| 2026-05-07 19:42 | 41.96218 | -87.91102 | 671 ft | 5 kts | 93° |
| 2026-05-07 19:43 | 41.96220 | -87.91040 | 671 ft | 9 kts | 88° |
| 2026-05-07 19:43 | 41.96219 | -87.90938 | 671 ft | 13 kts | 90° |
| 2026-05-07 19:43 | 41.96224 | -87.90840 | 671 ft | 10 kts | 73° |
| 2026-05-07 19:43 | 41.96260 | -87.90765 | 669 ft | 9 kts | 54° |
| 2026-05-07 19:44 | 41.96293 | -87.90705 | 670 ft | 8 kts | 53° |
| 2026-05-07 19:44 | 41.96324 | -87.90649 | 670 ft | 7 kts | 52° |
| 2026-05-07 19:44 | 41.96357 | -87.90596 | 666 ft | 7 kts | 51° |
| 2026-05-07 19:44 | 41.96389 | -87.90542 | 666 ft | 7 kts | 52° |
| 2026-05-07 19:45 | 41.96409 | -87.90481 | 668 ft | 7 kts | 79° |
| 2026-05-07 19:45 | 41.96411 | -87.90417 | 668 ft | 7 kts | 89° |
| 2026-05-07 19:45 | 41.96411 | -87.90353 | 668 ft | 7 kts | 90° |
| 2026-05-07 19:45 | 41.96411 | -87.90288 | 667 ft | 8 kts | 90° |
| 2026-05-07 19:46 | 41.96411 | -87.90208 | 664 ft | 10 kts | 89° |
| 2026-05-07 19:46 | 41.96412 | -87.90109 | 661 ft | 11 kts | 89° |
| 2026-05-07 19:46 | 41.96412 | -87.90012 | 660 ft | 10 kts | 90° |
| 2026-05-07 19:46 | 41.96412 | -87.89922 | 659 ft | 9 kts | 89° |
| 2026-05-07 19:47 | 41.96412 | -87.89835 | 658 ft | 9 kts | 90° |
| 2026-05-07 19:47 | 41.96412 | -87.89748 | 656 ft | 10 kts | 89° |
| 2026-05-07 19:47 | 41.96412 | -87.89655 | 657 ft | 10 kts | 90° |
| 2026-05-07 19:47 | 41.96413 | -87.89561 | 658 ft | 10 kts | 89° |
| 2026-05-07 19:48 | 41.96413 | -87.89469 | 656 ft | 10 kts | 90° |
| 2026-05-07 19:48 | 41.96413 | -87.89380 | 658 ft | 9 kts | 90° |
| 2026-05-07 19:48 | 41.96413 | -87.89295 | 659 ft | 9 kts | 90° |
| 2026-05-07 19:48 | 41.96430 | -87.89221 | 659 ft | 8 kts | 48° |
| 2026-05-07 19:49 | 41.96464 | -87.89203 | 659 ft | 0 kts | 6° |
| 2026-05-07 19:49 | 41.96477 | -87.89201 | 659 ft | 5 kts | 5° |
| 2026-05-07 19:49 | 41.96514 | -87.89199 | 659 ft | 5 kts | 2° |
| 2026-05-07 19:50 | 41.96552 | -87.89199 | 659 ft | 5 kts | 360° |
| 2026-05-07 19:50 | 41.96589 | -87.89199 | 659 ft | 5 kts | 360° |
| 2026-05-07 19:50 | 41.96625 | -87.89200 | 659 ft | 5 kts | 360° |
| 2026-05-07 19:50 | 41.96661 | -87.89200 | 659 ft | 5 kts | 359° |
| 2026-05-07 19:51 | 41.96697 | -87.89199 | 659 ft | 5 kts | 8° |
| 2026-05-07 19:51 | 41.96726 | -87.89175 | 658 ft | 5 kts | 46° |
| 2026-05-07 19:51 | 41.96740 | -87.89132 | 658 ft | 5 kts | 79° |
| 2026-05-07 19:51 | 41.96742 | -87.89086 | 658 ft | 5 kts | 88° |
| 2026-05-07 19:52 | 41.96743 | -87.89042 | 658 ft | 5 kts | 89° |
| 2026-05-07 19:52 | 41.96742 | -87.88996 | 659 ft | 5 kts | 90° |
| 2026-05-07 19:52 | 41.96742 | -87.88951 | 659 ft | 5 kts | 90° |
| 2026-05-07 19:52 | 41.96742 | -87.88907 | 660 ft | 5 kts | 90° |
| 2026-05-07 19:53 | 41.96742 | -87.88863 | 660 ft | 5 kts | 89° |
| 2026-05-07 19:53 | 41.96742 | -87.88816 | 660 ft | 6 kts | 90° |
| 2026-05-07 19:53 | 41.96742 | -87.88755 | 659 ft | 8 kts | 90° |
| 2026-05-07 19:53 | 41.96743 | -87.88671 | 658 ft | 10 kts | 90° |
| 2026-05-07 19:54 | 41.96758 | -87.88591 | 658 ft | 9 kts | 51° |
| 2026-05-07 19:54 | 41.96813 | -87.88543 | 657 ft | 10 kts | 27° |
| 2026-05-07 19:54 | 41.96877 | -87.88501 | 658 ft | 10 kts | 25° |
| 2026-05-07 19:54 | 41.96943 | -87.88460 | 657 ft | 10 kts | 23° |
| 2026-05-07 19:55 | 41.97003 | -87.88444 | 657 ft | 9 kts | 2° |
| 2026-05-07 19:55 | 41.97041 | -87.88397 | 658 ft | 8 kts | 74° |
| 2026-05-07 19:55 | 41.97046 | -87.88323 | 659 ft | 8 kts | 89° |
| 2026-05-07 19:55 | 41.97045 | -87.88253 | 661 ft | 8 kts | 90° |
| 2026-05-07 19:56 | 41.97046 | -87.88184 | 663 ft | 7 kts | 89° |
| 2026-05-07 19:56 | 41.97046 | -87.88116 | 665 ft | 7 kts | 93° |
| 2026-05-07 19:56 | 41.97030 | -87.88062 | 666 ft | 0 kts | 134° |
| 2026-05-07 19:57 | 41.97029 | -87.88061 | 666 ft | 1 kts | 134° |
| 2026-05-07 19:58 | 41.97007 | -87.88042 | 667 ft | 7 kts | 160° |
| 2026-05-07 19:58 | 41.96947 | -87.88044 | 667 ft | 11 kts | 201° |
| 2026-05-07 19:58 | 41.96862 | -87.88132 | 664 ft | 33 kts | 221° |
| 2026-05-07 19:58 | 41.96481 | -87.88583 | 666 ft | 109 kts | 221° |
| 2026-05-07 19:59 | 41.95752 | -87.89446 | 679 ft | 167 kts | 221° |
| 2026-05-07 19:59 | 41.94826 | -87.90580 | 1235 ft | 179 kts | 223° |
| 2026-05-07 19:59 | 41.93934 | -87.91658 | 2483 ft | 170 kts | 224° |
| 2026-05-07 19:59 | 41.93060 | -87.92739 | 3438 ft | 171 kts | 229° |
| 2026-05-07 20:00 | 41.92583 | -87.94286 | 3727 ft | 196 kts | 272° |
| 2026-05-07 20:00 | 41.92941 | -87.96147 | 4063 ft | 217 kts | 285° |
| 2026-05-07 20:00 | 41.93348 | -87.98098 | 4558 ft | 227 kts | 282° |
| 2026-05-07 20:00 | 41.93689 | -88.00324 | 4930 ft | 246 kts | 278° |
| 2026-05-07 20:01 | 41.93925 | -88.02586 | 5736 ft | 247 kts | 275° |
| 2026-05-07 20:01 | 41.94078 | -88.04876 | 6610 ft | 248 kts | 273° |
| 2026-05-07 20:01 | 41.94163 | -88.07203 | 7384 ft | 251 kts | 271° |
| 2026-05-07 20:01 | 41.94197 | -88.09544 | 8210 ft | 250 kts | 270° |
| 2026-05-07 20:02 | 41.94192 | -88.11880 | 9038 ft | 250 kts | 270° |
| 2026-05-07 20:02 | 41.94160 | -88.14227 | 9695 ft | 254 kts | 269° |
| 2026-05-07 20:02 | 41.94109 | -88.16542 | 9905 ft | 252 kts | 269° |
| 2026-05-07 20:02 | 41.94042 | -88.18907 | 9920 ft | 256 kts | 269° |
| 2026-05-07 20:03 | 41.93963 | -88.21285 | 9928 ft | 254 kts | 268° |
| 2026-05-07 20:03 | 41.93879 | -88.23612 | 9924 ft | 252 kts | 268° |
| 2026-05-07 20:03 | 41.93787 | -88.25974 | 9902 ft | 252 kts | 268° |
| 2026-05-07 20:03 | 41.93693 | -88.28307 | 9924 ft | 251 kts | 268° |
| 2026-05-07 20:04 | 41.93595 | -88.30666 | 9922 ft | 251 kts | 268° |
| 2026-05-07 20:04 | 41.93497 | -88.33001 | 9936 ft | 251 kts | 268° |
| 2026-05-07 20:04 | 41.93398 | -88.35294 | 9933 ft | 252 kts | 268° |
| 2026-05-07 20:04 | 41.93293 | -88.37692 | 9926 ft | 253 kts | 268° |
| 2026-05-07 20:05 | 41.93191 | -88.40025 | 9930 ft | 253 kts | 268° |
| 2026-05-07 20:05 | 41.93086 | -88.42391 | 9924 ft | 254 kts | 268° |
| 2026-05-07 20:05 | 41.92980 | -88.44758 | 9932 ft | 255 kts | 268° |
| 2026-05-07 20:05 | 41.92873 | -88.47140 | 9937 ft | 255 kts | 268° |
| 2026-05-07 20:06 | 41.92764 | -88.49521 | 9947 ft | 256 kts | 268° |
| 2026-05-07 20:06 | 41.92656 | -88.51896 | 9931 ft | 256 kts | 268° |
| 2026-05-07 20:06 | 41.92547 | -88.54278 | 9937 ft | 256 kts | 268° |
| 2026-05-07 20:06 | 41.92437 | -88.56676 | 9930 ft | 256 kts | 268° |
| 2026-05-07 20:07 | 41.92327 | -88.59051 | 9930 ft | 255 kts | 268° |
| 2026-05-07 20:07 | 41.92218 | -88.61406 | 9933 ft | 255 kts | 268° |
| 2026-05-07 20:07 | 41.92107 | -88.63776 | 9934 ft | 255 kts | 268° |
| 2026-05-07 20:07 | 41.91995 | -88.66177 | 9927 ft | 255 kts | 268° |
| 2026-05-07 20:08 | 41.91883 | -88.68548 | 9931 ft | 255 kts | 268° |
| 2026-05-07 20:08 | 41.91773 | -88.70899 | 9931 ft | 254 kts | 268° |
| 2026-05-07 20:08 | 41.91661 | -88.73260 | 9933 ft | 254 kts | 268° |
| 2026-05-07 20:08 | 41.91549 | -88.75626 | 9934 ft | 254 kts | 268° |
| 2026-05-07 20:09 | 41.91438 | -88.77912 | 10617 ft | 235 kts | 268° |
| 2026-05-07 20:09 | 41.91334 | -88.80030 | 11746 ft | 218 kts | 268° |
| 2026-05-07 20:09 | 41.91254 | -88.81965 | 12846 ft | 200 kts | 269° |
| 2026-05-07 20:10 | 41.91134 | -88.85956 | 13416 ft | 234 kts | 269° |
| 2026-05-07 20:10 | 41.91067 | -88.88205 | 13614 ft | 253 kts | 269° |
| 2026-05-07 20:10 | 41.90994 | -88.90589 | 14052 ft | 262 kts | 269° |
| 2026-05-07 20:10 | 41.90917 | -88.93067 | 14631 ft | 265 kts | 269° |
| 2026-05-07 20:11 | 41.90838 | -88.95548 | 15238 ft | 268 kts | 269° |
| 2026-05-07 20:11 | 41.90757 | -88.98052 | 15831 ft | 271 kts | 269° |
| 2026-05-07 20:11 | 41.90675 | -89.00607 | 16429 ft | 274 kts | 269° |
| 2026-05-07 20:11 | 41.90591 | -89.03178 | 17036 ft | 277 kts | 269° |
| 2026-05-07 20:12 | 41.90506 | -89.05778 | 17627 ft | 281 kts | 269° |
| 2026-05-07 20:12 | 41.90421 | -89.08381 | 18212 ft | 285 kts | 269° |
| 2026-05-07 20:12 | 41.90332 | -89.11079 | 18759 ft | 286 kts | 270° |
| 2026-05-07 20:12 | 41.90244 | -89.13713 | 19370 ft | 286 kts | 270° |
| 2026-05-07 20:13 | 41.90154 | -89.16364 | 19977 ft | 286 kts | 270° |
| 2026-05-07 20:13 | 41.90063 | -89.19044 | 20553 ft | 287 kts | 271° |
| 2026-05-07 20:13 | 41.89944 | -89.21718 | 21117 ft | 289 kts | 268° |
| 2026-05-07 20:13 | 41.89715 | -89.24404 | 21700 ft | 290 kts | 267° |
| 2026-05-07 20:14 | 41.89450 | -89.27085 | 22287 ft | 291 kts | 267° |
| 2026-05-07 20:14 | 41.89177 | -89.29785 | 22859 ft | 292 kts | 268° |
| 2026-05-07 20:14 | 41.88906 | -89.32475 | 23421 ft | 293 kts | 268° |
| 2026-05-07 20:14 | 41.88640 | -89.35153 | 23906 ft | 293 kts | 268° |
| 2026-05-07 20:15 | 41.88371 | -89.37869 | 24376 ft | 294 kts | 268° |
| 2026-05-07 20:15 | 41.88103 | -89.40593 | 24848 ft | 294 kts | 268° |
| 2026-05-07 20:15 | 41.87837 | -89.43307 | 25312 ft | 295 kts | 268° |
| 2026-05-07 20:15 | 41.87569 | -89.46035 | 25761 ft | 296 kts | 268° |
| 2026-05-07 20:16 | 41.87301 | -89.48775 | 26203 ft | 296 kts | 268° |
| 2026-05-07 20:16 | 41.87032 | -89.51505 | 26698 ft | 295 kts | 268° |
| 2026-05-07 20:16 | 41.86874 | -89.53103 | 27039 ft | 293 kts | 268° |
| 2026-05-07 20:17 | 41.86739 | -89.54466 | 27346 ft | 290 kts | 268° |
| 2026-05-07 20:17 | 41.86484 | -89.57046 | 27902 ft | 287 kts | 268° |
| 2026-05-07 20:17 | 41.86224 | -89.59676 | 28419 ft | 285 kts | 268° |
| 2026-05-07 20:18 | 41.85959 | -89.62358 | 28928 ft | 283 kts | 268° |
| 2026-05-07 20:18 | 41.85705 | -89.64919 | 29438 ft | 280 kts | 268° |
| 2026-05-07 20:18 | 41.85447 | -89.67511 | 29920 ft | 278 kts | 268° |
| 2026-05-07 20:18 | 41.85246 | -89.69524 | 30217 ft | 278 kts | 268° |
| 2026-05-07 20:19 | 41.85127 | -89.70708 | 30366 ft | 277 kts | 268° |
| 2026-05-07 20:19 | 41.84864 | -89.73325 | 30689 ft | 277 kts | 268° |
| 2026-05-07 20:20 | 41.84607 | -89.75844 | 31018 ft | 276 kts | 268° |
| 2026-05-07 20:20 | 41.84348 | -89.78372 | 31340 ft | 275 kts | 268° |
| 2026-05-07 20:20 | 41.84084 | -89.80944 | 31638 ft | 275 kts | 268° |
| 2026-05-07 20:20 | 41.83824 | -89.83463 | 31945 ft | 275 kts | 268° |
| 2026-05-07 20:21 | 41.83561 | -89.86011 | 32246 ft | 274 kts | 267° |
| 2026-05-07 20:21 | 41.83302 | -89.88520 | 32518 ft | 273 kts | 267° |
| 2026-05-07 20:21 | 41.83040 | -89.91052 | 32780 ft | 273 kts | 267° |
| 2026-05-07 20:21 | 41.82779 | -89.93569 | 33058 ft | 272 kts | 267° |
| 2026-05-07 20:22 | 41.82518 | -89.96087 | 33276 ft | 272 kts | 267° |
| 2026-05-07 20:22 | 41.82258 | -89.98589 | 33453 ft | 274 kts | 267° |
| 2026-05-07 20:22 | 41.81992 | -90.01164 | 33208 ft | 289 kts | 267° |
| 2026-05-07 20:22 | 41.81708 | -90.03918 | 33114 ft | 298 kts | 267° |
| 2026-05-07 20:23 | 41.81420 | -90.06674 | 33341 ft | 298 kts | 267° |
| 2026-05-07 20:23 | 41.81134 | -90.09374 | 33717 ft | 295 kts | 266° |
| 2026-05-07 20:23 | 41.80846 | -90.12090 | 33990 ft | 294 kts | 266° |
| 2026-05-07 20:23 | 41.80559 | -90.14799 | 34118 ft | 297 kts | 266° |
| 2026-05-07 20:24 | 41.80267 | -90.17560 | 34208 ft | 300 kts | 266° |
| 2026-05-07 20:24 | 41.79974 | -90.20331 | 34343 ft | 301 kts | 266° |
| 2026-05-07 20:24 | 41.79677 | -90.23126 | 34482 ft | 303 kts | 266° |
| 2026-05-07 20:24 | 41.79377 | -90.25935 | 34608 ft | 305 kts | 266° |
| 2026-05-07 20:25 | 41.79077 | -90.28747 | 34730 ft | 307 kts | 266° |
| 2026-05-07 20:25 | 41.78772 | -90.31594 | 34852 ft | 309 kts | 266° |
| 2026-05-07 20:25 | 41.78470 | -90.34410 | 34967 ft | 311 kts | 266° |
| 2026-05-07 20:25 | 41.78157 | -90.37320 | 35091 ft | 312 kts | 266° |
| 2026-05-07 20:26 | 41.77846 | -90.40201 | 35210 ft | 314 kts | 266° |
| 2026-05-07 20:26 | 41.77536 | -90.43073 | 35323 ft | 316 kts | 266° |
| 2026-05-07 20:26 | 41.77218 | -90.46005 | 35438 ft | 318 kts | 266° |
| 2026-05-07 20:26 | 41.76900 | -90.48935 | 35543 ft | 319 kts | 266° |
| 2026-05-07 20:27 | 41.76581 | -90.51868 | 35664 ft | 321 kts | 266° |
| 2026-05-07 20:27 | 41.76255 | -90.54850 | 35783 ft | 322 kts | 266° |
| 2026-05-07 20:27 | 41.75930 | -90.57817 | 35871 ft | 324 kts | 265° |
| 2026-05-07 20:28 | 41.75275 | -90.63785 | 35899 ft | 327 kts | 265° |
| 2026-05-07 20:28 | 41.74608 | -90.69825 | 35910 ft | 327 kts | 265° |
| 2026-05-07 20:29 | 41.73944 | -90.75806 | 35908 ft | 327 kts | 265° |
| 2026-05-07 20:29 | 41.73272 | -90.81834 | 35911 ft | 327 kts | 265° |
| 2026-05-07 20:30 | 41.72598 | -90.87853 | 35912 ft | 327 kts | 265° |
| 2026-05-07 20:30 | 41.72034 | -90.92860 | 35913 ft | 327 kts | 265° |
| 2026-05-07 20:31 | 41.71241 | -90.99880 | 35922 ft | 327 kts | 265° |
| 2026-05-07 20:31 | 41.70557 | -91.05895 | 35920 ft | 327 kts | 265° |
| 2026-05-07 20:32 | 41.69872 | -91.11897 | 35921 ft | 327 kts | 265° |
| 2026-05-07 20:32 | 41.69297 | -91.16909 | 35926 ft | 327 kts | 265° |
| 2026-05-07 20:33 | 41.68606 | -91.22910 | 35921 ft | 327 kts | 265° |
| 2026-05-07 20:33 | 41.67912 | -91.28904 | 35926 ft | 327 kts | 265° |
| 2026-05-07 20:34 | 41.67216 | -91.34894 | 35926 ft | 326 kts | 265° |
| 2026-05-07 20:34 | 41.66515 | -91.40892 | 35925 ft | 326 kts | 265° |
| 2026-05-07 20:35 | 41.65815 | -91.46866 | 35924 ft | 327 kts | 265° |
| 2026-05-07 20:35 | 41.65102 | -91.52909 | 35924 ft | 327 kts | 265° |
| 2026-05-07 20:36 | 41.64399 | -91.58845 | 35922 ft | 327 kts | 265° |
| 2026-05-07 20:36 | 41.63683 | -91.64864 | 35925 ft | 327 kts | 265° |
| 2026-05-07 20:37 | 41.62965 | -91.70871 | 35825 ft | 330 kts | 265° |
| 2026-05-07 20:37 | 41.62603 | -91.73910 | 35502 ft | 339 kts | 265° |
| 2026-05-07 20:37 | 41.62225 | -91.77074 | 35166 ft | 350 kts | 265° |
| 2026-05-07 20:37 | 41.61838 | -91.80306 | 34981 ft | 355 kts | 265° |
| 2026-05-07 20:38 | 41.61443 | -91.83570 | 34988 ft | 355 kts | 265° |
| 2026-05-07 20:38 | 41.61048 | -91.86802 | 35212 ft | 349 kts | 265° |
| 2026-05-07 20:38 | 41.60659 | -91.89975 | 35480 ft | 343 kts | 265° |
| 2026-05-07 20:38 | 41.60273 | -91.93157 | 35154 ft | 354 kts | 265° |
| 2026-05-07 20:39 | 41.59875 | -91.96443 | 34852 ft | 364 kts | 265° |
| 2026-05-07 20:39 | 41.59055 | -92.03143 | 34996 ft | 364 kts | 265° |
| 2026-05-07 20:40 | 41.58228 | -92.09848 | 35077 ft | 366 kts | 265° |
| 2026-05-07 20:40 | 41.57402 | -92.16523 | 35143 ft | 368 kts | 264° |
| 2026-05-07 20:41 | 41.56563 | -92.23273 | 35238 ft | 370 kts | 264° |
| 2026-05-07 20:41 | 41.55713 | -92.30082 | 35312 ft | 372 kts | 264° |
| 2026-05-07 20:42 | 41.54859 | -92.36883 | 35387 ft | 373 kts | 264° |
| 2026-05-07 20:42 | 41.53993 | -92.43749 | 35465 ft | 375 kts | 264° |
| 2026-05-07 20:43 | 41.53123 | -92.50614 | 35540 ft | 377 kts | 264° |
| 2026-05-07 20:43 | 41.52249 | -92.57469 | 35613 ft | 378 kts | 264° |
| 2026-05-07 20:44 | 41.51363 | -92.64394 | 35691 ft | 379 kts | 264° |
| 2026-05-07 20:44 | 41.50475 | -92.71291 | 35817 ft | 377 kts | 264° |
| 2026-05-07 20:45 | 41.49580 | -92.78202 | 35895 ft | 375 kts | 264° |
| 2026-05-07 20:45 | 41.48687 | -92.85078 | 35893 ft | 376 kts | 264° |
| 2026-05-07 20:46 | 41.47799 | -92.91884 | 35883 ft | 376 kts | 264° |
| 2026-05-07 20:46 | 41.46897 | -92.98761 | 35889 ft | 377 kts | 263° |
| 2026-05-07 20:47 | 41.45992 | -93.05629 | 35884 ft | 377 kts | 263° |
| 2026-05-07 20:47 | 41.45078 | -93.12529 | 35890 ft | 377 kts | 263° |
| 2026-05-07 20:48 | 41.44160 | -93.19432 | 35877 ft | 379 kts | 263° |
| 2026-05-07 20:48 | 41.43242 | -93.26295 | 35886 ft | 379 kts | 263° |
| 2026-05-07 20:49 | 41.42315 | -93.33197 | 35883 ft | 379 kts | 263° |
| 2026-05-07 20:49 | 41.41383 | -93.40115 | 35889 ft | 380 kts | 263° |
| 2026-05-07 20:50 | 41.40441 | -93.47065 | 35880 ft | 381 kts | 263° |
| 2026-05-07 20:50 | 41.40120 | -93.50552 | 35746 ft | 383 kts | 268° |
| 2026-05-07 20:50 | 41.39912 | -93.54170 | 34744 ft | 400 kts | 269° |
| 2026-05-07 20:50 | 41.39721 | -93.57845 | 33825 ft | 406 kts | 269° |
| 2026-05-07 20:51 | 41.39528 | -93.61616 | 32688 ft | 413 kts | 269° |
| 2026-05-07 20:51 | 41.39329 | -93.65395 | 32210 ft | 405 kts | 269° |
| 2026-05-07 20:51 | 41.39126 | -93.69103 | 32064 ft | 392 kts | 269° |
| 2026-05-07 20:51 | 41.38929 | -93.72633 | 31910 ft | 379 kts | 269° |
| 2026-05-07 20:52 | 41.38732 | -93.76094 | 31877 ft | 364 kts | 269° |
| 2026-05-07 20:52 | 41.38357 | -93.82725 | 31882 ft | 361 kts | 269° |
| 2026-05-07 20:53 | 41.37975 | -93.89452 | 31888 ft | 367 kts | 269° |
| 2026-05-07 20:53 | 41.37582 | -93.96273 | 31876 ft | 372 kts | 269° |
| 2026-05-07 20:54 | 41.37181 | -94.03122 | 31860 ft | 376 kts | 269° |
| 2026-05-07 20:54 | 41.36974 | -94.06638 | 31264 ft | 384 kts | 269° |
| 2026-05-07 20:54 | 41.36762 | -94.10180 | 30780 ft | 381 kts | 269° |
| 2026-05-07 20:54 | 41.36551 | -94.13691 | 30251 ft | 379 kts | 269° |
| 2026-05-07 20:55 | 41.36340 | -94.17164 | 29712 ft | 376 kts | 269° |
| 2026-05-07 20:55 | 41.36130 | -94.20631 | 29114 ft | 374 kts | 269° |
| 2026-05-07 20:55 | 41.35920 | -94.24068 | 28542 ft | 371 kts | 269° |
| 2026-05-07 20:55 | 41.35714 | -94.27440 | 27983 ft | 369 kts | 269° |
| 2026-05-07 20:56 | 41.35505 | -94.30835 | 27431 ft | 367 kts | 269° |
| 2026-05-07 20:56 | 41.35297 | -94.34202 | 26884 ft | 365 kts | 269° |
| 2026-05-07 20:56 | 41.35088 | -94.37573 | 26349 ft | 363 kts | 269° |
| 2026-05-07 20:56 | 41.34881 | -94.40901 | 25827 ft | 362 kts | 269° |
| 2026-05-07 20:57 | 41.34673 | -94.44232 | 25311 ft | 360 kts | 269° |
| 2026-05-07 20:57 | 41.34467 | -94.47509 | 24803 ft | 358 kts | 269° |
| 2026-05-07 20:57 | 41.34257 | -94.50842 | 24303 ft | 357 kts | 270° |
| 2026-05-07 20:57 | 41.34049 | -94.54123 | 23808 ft | 356 kts | 270° |
| 2026-05-07 20:58 | 41.33844 | -94.57349 | 23317 ft | 354 kts | 270° |
| 2026-05-07 20:58 | 41.33635 | -94.60610 | 22735 ft | 353 kts | 270° |
| 2026-05-07 20:58 | 41.33427 | -94.63856 | 22187 ft | 352 kts | 270° |
| 2026-05-07 20:58 | 41.33218 | -94.67093 | 21632 ft | 351 kts | 270° |
| 2026-05-07 20:59 | 41.33009 | -94.70320 | 21096 ft | 350 kts | 270° |
| 2026-05-07 20:59 | 41.32801 | -94.73507 | 20557 ft | 349 kts | 270° |
| 2026-05-07 20:59 | 41.32591 | -94.76724 | 20043 ft | 348 kts | 270° |
| 2026-05-07 20:59 | 41.32378 | -94.79960 | 19518 ft | 346 kts | 270° |
| 2026-05-07 21:00 | 41.32170 | -94.83116 | 19048 ft | 345 kts | 270° |
| 2026-05-07 21:00 | 41.31961 | -94.86235 | 18906 ft | 333 kts | 270° |
| 2026-05-07 21:00 | 41.31758 | -94.89236 | 18843 ft | 320 kts | 270° |
| 2026-05-07 21:00 | 41.31559 | -94.92148 | 18833 ft | 307 kts | 270° |
| 2026-05-07 21:01 | 41.31373 | -94.94906 | 18833 ft | 301 kts | 270° |
| 2026-05-07 21:01 | 41.31188 | -94.97704 | 18846 ft | 306 kts | 270° |
| 2026-05-07 21:01 | 41.31001 | -95.00554 | 18854 ft | 312 kts | 270° |
| 2026-05-07 21:01 | 41.30812 | -95.03387 | 18841 ft | 312 kts | 270° |
| 2026-05-07 21:02 | 41.30615 | -95.06292 | 18838 ft | 310 kts | 270° |
| 2026-05-07 21:02 | 41.30420 | -95.09137 | 18838 ft | 308 kts | 270° |
| 2026-05-07 21:02 | 41.30227 | -95.11961 | 18838 ft | 307 kts | 270° |
| 2026-05-07 21:02 | 41.30035 | -95.14753 | 18830 ft | 306 kts | 270° |
| 2026-05-07 21:03 | 41.29841 | -95.17561 | 18842 ft | 306 kts | 270° |
| 2026-05-07 21:03 | 41.29646 | -95.20380 | 18840 ft | 306 kts | 270° |
| 2026-05-07 21:03 | 41.29450 | -95.23226 | 18849 ft | 311 kts | 270° |
| 2026-05-07 21:03 | 41.29252 | -95.26085 | 18850 ft | 313 kts | 270° |
| 2026-05-07 21:04 | 41.29050 | -95.28975 | 18845 ft | 312 kts | 270° |
| 2026-05-07 21:04 | 41.28848 | -95.31834 | 18842 ft | 311 kts | 270° |
| 2026-05-07 21:04 | 41.28646 | -95.34691 | 18837 ft | 309 kts | 270° |
| 2026-05-07 21:04 | 41.28446 | -95.37512 | 18836 ft | 308 kts | 270° |
| 2026-05-07 21:05 | 41.28244 | -95.40348 | 18838 ft | 308 kts | 270° |
| 2026-05-07 21:05 | 41.28042 | -95.43193 | 18840 ft | 308 kts | 269° |
| 2026-05-07 21:05 | 41.27840 | -95.46010 | 18848 ft | 309 kts | 269° |
| 2026-05-07 21:05 | 41.27635 | -95.48888 | 18837 ft | 311 kts | 269° |
| 2026-05-07 21:06 | 41.27429 | -95.51750 | 18848 ft | 312 kts | 269° |
| 2026-05-07 21:06 | 41.27224 | -95.54596 | 18841 ft | 314 kts | 269° |
| 2026-05-07 21:06 | 41.27014 | -95.57482 | 18835 ft | 315 kts | 269° |
| 2026-05-07 21:06 | 41.26803 | -95.60384 | 18844 ft | 316 kts | 269° |
| 2026-05-07 21:07 | 41.26589 | -95.63324 | 18838 ft | 316 kts | 269° |
| 2026-05-07 21:07 | 41.26378 | -95.66199 | 18831 ft | 317 kts | 269° |
| 2026-05-07 21:07 | 41.26164 | -95.69107 | 18821 ft | 317 kts | 269° |
| 2026-05-07 21:07 | 41.25949 | -95.72016 | 18829 ft | 317 kts | 269° |
| 2026-05-07 21:08 | 41.25731 | -95.74949 | 18824 ft | 316 kts | 269° |
| 2026-05-07 21:08 | 41.25515 | -95.77853 | 18822 ft | 316 kts | 269° |
| 2026-05-07 21:08 | 41.25298 | -95.80755 | 18831 ft | 316 kts | 269° |
| 2026-05-07 21:08 | 41.25087 | -95.83580 | 18820 ft | 315 kts | 269° |
| 2026-05-07 21:09 | 41.24868 | -95.86496 | 18836 ft | 315 kts | 269° |
| 2026-05-07 21:09 | 41.24650 | -95.89386 | 18834 ft | 314 kts | 269° |
| 2026-05-07 21:09 | 41.24431 | -95.92282 | 18844 ft | 314 kts | 269° |
| 2026-05-07 21:09 | 41.24212 | -95.95178 | 18843 ft | 314 kts | 269° |
| 2026-05-07 21:10 | 41.23993 | -95.98054 | 18841 ft | 314 kts | 269° |
| 2026-05-07 21:10 | 41.23773 | -96.00934 | 18856 ft | 314 kts | 269° |
| 2026-05-07 21:10 | 41.23551 | -96.03833 | 18850 ft | 315 kts | 269° |
| 2026-05-07 21:10 | 41.23329 | -96.06733 | 18851 ft | 315 kts | 269° |
| 2026-05-07 21:11 | 41.23107 | -96.09604 | 18849 ft | 315 kts | 269° |
| 2026-05-07 21:11 | 41.22883 | -96.12504 | 18853 ft | 315 kts | 269° |
| 2026-05-07 21:11 | 41.22435 | -96.18264 | 18850 ft | 315 kts | 269° |
| 2026-05-07 21:12 | 41.22209 | -96.21159 | 18856 ft | 316 kts | 269° |
| 2026-05-07 21:12 | 41.21981 | -96.24059 | 18852 ft | 316 kts | 269° |
| 2026-05-07 21:12 | 41.21753 | -96.26958 | 18849 ft | 316 kts | 269° |
| 2026-05-07 21:12 | 41.21524 | -96.29862 | 18852 ft | 316 kts | 269° |
| 2026-05-07 21:13 | 41.21293 | -96.32779 | 18849 ft | 317 kts | 269° |
| 2026-05-07 21:13 | 41.21062 | -96.35691 | 18846 ft | 317 kts | 269° |
| 2026-05-07 21:13 | 41.20830 | -96.38599 | 18851 ft | 317 kts | 269° |
| 2026-05-07 21:13 | 41.20601 | -96.41464 | 18856 ft | 316 kts | 269° |
| 2026-05-07 21:14 | 41.20369 | -96.44363 | 18861 ft | 316 kts | 269° |
| 2026-05-07 21:14 | 41.20134 | -96.47276 | 18854 ft | 316 kts | 269° |
| 2026-05-07 21:14 | 41.19901 | -96.50162 | 18857 ft | 316 kts | 269° |
| 2026-05-07 21:14 | 41.19666 | -96.53072 | 18861 ft | 316 kts | 269° |
| 2026-05-07 21:15 | 41.19431 | -96.55962 | 18863 ft | 316 kts | 269° |
| 2026-05-07 21:15 | 41.19196 | -96.58847 | 18863 ft | 315 kts | 269° |
| 2026-05-07 21:15 | 41.18958 | -96.61749 | 18859 ft | 315 kts | 269° |
| 2026-05-07 21:15 | 41.18724 | -96.64611 | 18863 ft | 315 kts | 269° |
| 2026-05-07 21:16 | 41.18483 | -96.67542 | 18859 ft | 315 kts | 269° |
| 2026-05-07 21:16 | 41.18247 | -96.70402 | 18860 ft | 315 kts | 269° |
| 2026-05-07 21:16 | 41.18007 | -96.73299 | 18860 ft | 315 kts | 269° |
| 2026-05-07 21:16 | 41.17769 | -96.76176 | 18864 ft | 315 kts | 269° |
| 2026-05-07 21:17 | 41.17527 | -96.79080 | 18857 ft | 315 kts | 269° |
| 2026-05-07 21:17 | 41.17287 | -96.81954 | 18854 ft | 315 kts | 269° |
| 2026-05-07 21:17 | 41.17044 | -96.84854 | 18859 ft | 315 kts | 268° |
| 2026-05-07 21:17 | 41.16801 | -96.87734 | 18858 ft | 315 kts | 269° |
| 2026-05-07 21:18 | 41.16559 | -96.90615 | 18863 ft | 315 kts | 269° |
| 2026-05-07 21:18 | 41.16317 | -96.93468 | 18853 ft | 315 kts | 269° |
| 2026-05-07 21:18 | 41.16073 | -96.96356 | 18860 ft | 315 kts | 269° |
| 2026-05-07 21:18 | 41.15828 | -96.99234 | 18856 ft | 314 kts | 269° |
| 2026-05-07 21:19 | 41.15582 | -97.02121 | 18856 ft | 314 kts | 269° |
| 2026-05-07 21:19 | 41.15336 | -97.05000 | 18859 ft | 314 kts | 269° |
| 2026-05-07 21:19 | 41.15089 | -97.07872 | 18855 ft | 314 kts | 268° |
| 2026-05-07 21:19 | 41.14840 | -97.10767 | 18865 ft | 314 kts | 269° |
| 2026-05-07 21:20 | 41.14592 | -97.13639 | 18858 ft | 314 kts | 269° |
| 2026-05-07 21:20 | 41.14346 | -97.16485 | 18868 ft | 314 kts | 268° |
| 2026-05-07 21:20 | 41.14093 | -97.19393 | 18867 ft | 314 kts | 269° |
| 2026-05-07 21:20 | 41.13845 | -97.22235 | 18870 ft | 314 kts | 269° |
| 2026-05-07 21:21 | 41.13595 | -97.25101 | 18860 ft | 314 kts | 268° |
| 2026-05-07 21:21 | 41.13343 | -97.27976 | 18859 ft | 314 kts | 268° |
| 2026-05-07 21:21 | 41.13091 | -97.30851 | 18864 ft | 314 kts | 268° |
| 2026-05-07 21:21 | 41.12838 | -97.33719 | 18867 ft | 314 kts | 268° |
| 2026-05-07 21:22 | 41.12583 | -97.36603 | 18864 ft | 313 kts | 268° |
| 2026-05-07 21:22 | 41.12330 | -97.39460 | 18867 ft | 313 kts | 268° |
| 2026-05-07 21:22 | 41.12074 | -97.42340 | 18866 ft | 313 kts | 268° |
| 2026-05-07 21:22 | 41.11818 | -97.45208 | 18867 ft | 313 kts | 268° |
| 2026-05-07 21:23 | 41.11563 | -97.48069 | 18871 ft | 313 kts | 268° |
| 2026-05-07 21:23 | 41.11305 | -97.50945 | 18866 ft | 314 kts | 268° |
| 2026-05-07 21:23 | 41.11046 | -97.53822 | 18873 ft | 314 kts | 268° |
| 2026-05-07 21:23 | 41.10788 | -97.56690 | 18866 ft | 314 kts | 268° |
| 2026-05-07 21:24 | 41.10528 | -97.59560 | 18872 ft | 314 kts | 268° |
| 2026-05-07 21:24 | 41.10267 | -97.62446 | 18861 ft | 314 kts | 268° |
| 2026-05-07 21:24 | 41.10006 | -97.65313 | 18870 ft | 314 kts | 268° |
| 2026-05-07 21:24 | 41.09744 | -97.68189 | 18871 ft | 315 kts | 268° |
| 2026-05-07 21:25 | 41.09480 | -97.71069 | 18864 ft | 315 kts | 268° |
| 2026-05-07 21:25 | 41.09219 | -97.73919 | 18866 ft | 315 kts | 268° |
| 2026-05-07 21:25 | 41.08956 | -97.76784 | 18863 ft | 316 kts | 268° |
| 2026-05-07 21:25 | 41.08690 | -97.79671 | 18866 ft | 316 kts | 268° |
| 2026-05-07 21:26 | 41.08420 | -97.82586 | 18871 ft | 316 kts | 268° |
| 2026-05-07 21:26 | 41.08152 | -97.85477 | 18865 ft | 316 kts | 268° |
| 2026-05-07 21:26 | 41.07884 | -97.88366 | 18867 ft | 316 kts | 268° |
| 2026-05-07 21:26 | 41.07613 | -97.91272 | 18868 ft | 316 kts | 268° |
| 2026-05-07 21:27 | 41.07343 | -97.94159 | 18872 ft | 316 kts | 268° |
| 2026-05-07 21:27 | 41.07071 | -97.97057 | 18867 ft | 316 kts | 268° |
| 2026-05-07 21:27 | 41.06802 | -97.99917 | 18868 ft | 316 kts | 268° |
| 2026-05-07 21:27 | 41.06530 | -98.02801 | 18866 ft | 316 kts | 268° |
| 2026-05-07 21:28 | 41.06257 | -98.05691 | 18878 ft | 316 kts | 267° |
| 2026-05-07 21:28 | 41.05983 | -98.08576 | 18865 ft | 316 kts | 267° |
| 2026-05-07 21:28 | 41.05709 | -98.11470 | 18882 ft | 316 kts | 267° |
| 2026-05-07 21:28 | 41.05434 | -98.14348 | 18886 ft | 316 kts | 267° |
| 2026-05-07 21:29 | 41.05157 | -98.17251 | 18871 ft | 317 kts | 267° |
| 2026-05-07 21:29 | 41.04881 | -98.20130 | 18884 ft | 317 kts | 267° |
| 2026-05-07 21:29 | 41.04603 | -98.23029 | 18865 ft | 317 kts | 267° |
| 2026-05-07 21:29 | 41.04324 | -98.25925 | 18885 ft | 317 kts | 267° |
| 2026-05-07 21:30 | 41.04047 | -98.28797 | 18884 ft | 318 kts | 267° |
| 2026-05-07 21:30 | 41.03766 | -98.31698 | 18884 ft | 318 kts | 267° |
| 2026-05-07 21:30 | 41.03481 | -98.34636 | 18879 ft | 319 kts | 267° |
| 2026-05-07 21:30 | 41.03200 | -98.37517 | 18876 ft | 319 kts | 266° |
| 2026-05-07 21:31 | 41.02916 | -98.40431 | 18882 ft | 319 kts | 266° |
| 2026-05-07 21:31 | 41.02634 | -98.43312 | 18877 ft | 319 kts | 266° |
| 2026-05-07 21:31 | 41.02346 | -98.46240 | 18874 ft | 319 kts | 266° |
| 2026-05-07 21:31 | 41.02066 | -98.49085 | 18880 ft | 320 kts | 266° |
| 2026-05-07 21:32 | 41.01797 | -98.51818 | 18880 ft | 320 kts | 266° |
| 2026-05-07 21:32 | 41.01499 | -98.54831 | 18874 ft | 320 kts | 266° |
| 2026-05-07 21:32 | 41.01205 | -98.57791 | 18870 ft | 320 kts | 266° |
| 2026-05-07 21:32 | 41.00914 | -98.60720 | 18877 ft | 320 kts | 266° |
| 2026-05-07 21:33 | 41.00625 | -98.63616 | 18877 ft | 321 kts | 266° |
| 2026-05-07 21:33 | 41.00333 | -98.66540 | 18877 ft | 321 kts | 266° |
| 2026-05-07 21:33 | 41.00040 | -98.69466 | 18866 ft | 322 kts | 266° |
| 2026-05-07 21:33 | 40.99745 | -98.72400 | 18874 ft | 322 kts | 266° |
| 2026-05-07 21:34 | 40.99449 | -98.75341 | 18867 ft | 322 kts | 266° |
| 2026-05-07 21:34 | 40.99154 | -98.78258 | 18860 ft | 322 kts | 266° |
| 2026-05-07 21:34 | 40.98855 | -98.81216 | 18872 ft | 321 kts | 266° |
| 2026-05-07 21:34 | 40.98561 | -98.84107 | 18862 ft | 321 kts | 266° |
| 2026-05-07 21:35 | 40.98263 | -98.87030 | 18858 ft | 320 kts | 266° |
| 2026-05-07 21:35 | 40.97965 | -98.89949 | 18867 ft | 320 kts | 266° |
| 2026-05-07 21:35 | 40.97667 | -98.92865 | 18875 ft | 319 kts | 265° |
| 2026-05-07 21:35 | 40.97368 | -98.95776 | 18867 ft | 319 kts | 265° |
| 2026-05-07 21:36 | 40.97069 | -98.98688 | 18866 ft | 319 kts | 265° |
| 2026-05-07 21:36 | 40.96772 | -99.01572 | 18865 ft | 319 kts | 265° |
| 2026-05-07 21:36 | 40.96469 | -99.04505 | 18872 ft | 319 kts | 265° |
| 2026-05-07 21:36 | 40.96168 | -99.07405 | 18866 ft | 319 kts | 265° |
| 2026-05-07 21:37 | 40.95866 | -99.10322 | 18870 ft | 319 kts | 265° |
| 2026-05-07 21:37 | 40.95564 | -99.13224 | 18872 ft | 319 kts | 265° |
| 2026-05-07 21:37 | 40.95262 | -99.16109 | 18866 ft | 320 kts | 265° |
| 2026-05-07 21:37 | 40.94960 | -99.19002 | 18862 ft | 320 kts | 265° |
| 2026-05-07 21:38 | 40.94652 | -99.21931 | 18862 ft | 321 kts | 265° |
| 2026-05-07 21:38 | 40.94346 | -99.24848 | 18860 ft | 321 kts | 265° |
| 2026-05-07 21:38 | 40.94037 | -99.27782 | 18656 ft | 325 kts | 265° |
| 2026-05-07 21:38 | 40.93722 | -99.30757 | 18419 ft | 323 kts | 265° |
| 2026-05-07 21:39 | 40.93412 | -99.33680 | 18181 ft | 320 kts | 265° |
| 2026-05-07 21:39 | 40.93103 | -99.36585 | 17908 ft | 317 kts | 265° |
| 2026-05-07 21:39 | 40.92797 | -99.39448 | 17629 ft | 314 kts | 265° |
| 2026-05-07 21:39 | 40.92491 | -99.42303 | 17379 ft | 312 kts | 265° |
| 2026-05-07 21:40 | 40.92189 | -99.45127 | 17117 ft | 310 kts | 265° |
| 2026-05-07 21:40 | 40.91892 | -99.47901 | 16858 ft | 308 kts | 265° |
| 2026-05-07 21:40 | 40.91586 | -99.50757 | 16069 ft | 322 kts | 265° |
| 2026-05-07 21:40 | 40.91271 | -99.53705 | 15380 ft | 329 kts | 265° |
| 2026-05-07 21:41 | 40.90945 | -99.56742 | 14651 ft | 336 kts | 265° |
| 2026-05-07 21:41 | 40.90612 | -99.59829 | 13948 ft | 342 kts | 265° |
| 2026-05-07 21:41 | 40.90271 | -99.62964 | 13211 ft | 348 kts | 265° |
| 2026-05-07 21:41 | 40.89924 | -99.66153 | 12426 ft | 353 kts | 264° |
| 2026-05-07 21:42 | 40.89571 | -99.69387 | 11665 ft | 357 kts | 264° |
| 2026-05-07 21:42 | 40.89219 | -99.72601 | 10930 ft | 360 kts | 264° |
| 2026-05-07 21:42 | 40.88859 | -99.75873 | 10224 ft | 363 kts | 263° |
| 2026-05-07 21:42 | 40.88490 | -99.79204 | 9490 ft | 365 kts | 263° |
| 2026-05-07 21:43 | 40.88128 | -99.82472 | 9191 ft | 355 kts | 263° |
| 2026-05-07 21:43 | 40.87777 | -99.85633 | 9041 ft | 341 kts | 263° |
| 2026-05-07 21:43 | 40.87441 | -99.88671 | 8914 ft | 328 kts | 262° |
| 2026-05-07 21:43 | 40.87110 | -99.91595 | 8854 ft | 314 kts | 263° |
| 2026-05-07 21:44 | 40.86800 | -99.94377 | 8855 ft | 298 kts | 262° |
| 2026-05-07 21:44 | 40.86506 | -99.97017 | 8855 ft | 286 kts | 263° |
| 2026-05-07 21:44 | 40.86216 | -99.99613 | 8883 ft | 286 kts | 263° |
| 2026-05-07 21:44 | 40.85931 | -100.02192 | 8862 ft | 287 kts | 263° |
| 2026-05-07 21:45 | 40.85641 | -100.04797 | 8888 ft | 287 kts | 262° |
| 2026-05-07 21:45 | 40.85350 | -100.07401 | 8860 ft | 286 kts | 262° |
| 2026-05-07 21:45 | 40.85055 | -100.09989 | 8864 ft | 285 kts | 262° |
| 2026-05-07 21:45 | 40.84761 | -100.12580 | 8831 ft | 286 kts | 262° |
| 2026-05-07 21:46 | 40.84468 | -100.15170 | 8851 ft | 285 kts | 262° |
| 2026-05-07 21:46 | 40.84175 | -100.17768 | 8859 ft | 286 kts | 262° |
| 2026-05-07 21:46 | 40.83877 | -100.20363 | 8859 ft | 286 kts | 262° |
| 2026-05-07 21:46 | 40.83581 | -100.22964 | 8850 ft | 287 kts | 262° |
| 2026-05-07 21:47 | 40.83289 | -100.25533 | 8832 ft | 287 kts | 262° |
| 2026-05-07 21:47 | 40.82986 | -100.28175 | 8847 ft | 286 kts | 262° |
| 2026-05-07 21:47 | 40.82693 | -100.30769 | 8847 ft | 287 kts | 262° |
| 2026-05-07 21:47 | 40.82395 | -100.33346 | 8848 ft | 288 kts | 262° |
| 2026-05-07 21:48 | 40.82090 | -100.35962 | 8847 ft | 288 kts | 262° |
| 2026-05-07 21:48 | 40.81789 | -100.38570 | 8848 ft | 287 kts | 262° |
| 2026-05-07 21:48 | 40.81491 | -100.41166 | 8850 ft | 287 kts | 262° |
| 2026-05-07 21:48 | 40.81187 | -100.43791 | 8852 ft | 287 kts | 262° |
| 2026-05-07 21:49 | 40.80890 | -100.46354 | 8835 ft | 278 kts | 262° |
| 2026-05-07 21:49 | 40.80599 | -100.48838 | 8827 ft | 268 kts | 262° |
| 2026-05-07 21:49 | 40.80319 | -100.51223 | 8844 ft | 262 kts | 262° |
| 2026-05-07 21:49 | 40.80044 | -100.53587 | 8859 ft | 267 kts | 262° |
| 2026-05-07 21:50 | 40.79761 | -100.56022 | 8863 ft | 271 kts | 262° |
| 2026-05-07 21:50 | 40.79473 | -100.58489 | 8865 ft | 272 kts | 262° |
| 2026-05-07 21:50 | 40.79184 | -100.60940 | 8862 ft | 270 kts | 262° |
| 2026-05-07 21:50 | 40.78894 | -100.63391 | 8846 ft | 269 kts | 262° |
| 2026-05-07 21:51 | 40.78611 | -100.65808 | 8850 ft | 268 kts | 262° |
| 2026-05-07 21:51 | 40.78332 | -100.68236 | 8862 ft | 268 kts | 262° |
| 2026-05-07 21:51 | 40.78061 | -100.70631 | 8874 ft | 266 kts | 262° |
| 2026-05-07 21:51 | 40.77781 | -100.73097 | 8857 ft | 268 kts | 262° |
| 2026-05-07 21:52 | 40.77504 | -100.75534 | 8865 ft | 270 kts | 262° |
| 2026-05-07 21:52 | 40.77225 | -100.77984 | 8851 ft | 271 kts | 262° |
| 2026-05-07 21:52 | 40.76948 | -100.80424 | 8856 ft | 271 kts | 262° |
| 2026-05-07 21:52 | 40.76666 | -100.82878 | 8862 ft | 271 kts | 261° |
| 2026-05-07 21:53 | 40.76384 | -100.85340 | 8857 ft | 272 kts | 262° |
| 2026-05-07 21:53 | 40.76103 | -100.87791 | 8851 ft | 271 kts | 262° |
| 2026-05-07 21:53 | 40.75818 | -100.90258 | 8878 ft | 271 kts | 262° |
| 2026-05-07 21:53 | 40.75536 | -100.92705 | 8855 ft | 271 kts | 262° |
| 2026-05-07 21:54 | 40.75252 | -100.95162 | 8853 ft | 270 kts | 262° |
| 2026-05-07 21:54 | 40.74973 | -100.97576 | 8860 ft | 268 kts | 262° |
| 2026-05-07 21:54 | 40.74692 | -101.00002 | 8863 ft | 267 kts | 262° |
| 2026-05-07 21:54 | 40.74412 | -101.02419 | 8863 ft | 268 kts | 262° |
| 2026-05-07 21:55 | 40.74130 | -101.04843 | 8857 ft | 268 kts | 262° |
| 2026-05-07 21:55 | 40.73848 | -101.07254 | 8862 ft | 267 kts | 261° |
| 2026-05-07 21:55 | 40.73565 | -101.09680 | 8870 ft | 266 kts | 262° |
| 2026-05-07 21:55 | 40.73284 | -101.12087 | 8855 ft | 266 kts | 262° |
| 2026-05-07 21:56 | 40.73002 | -101.14499 | 8865 ft | 265 kts | 262° |
| 2026-05-07 21:56 | 40.72722 | -101.16894 | 8889 ft | 266 kts | 262° |
| 2026-05-07 21:56 | 40.72434 | -101.19327 | 8861 ft | 268 kts | 262° |
| 2026-05-07 21:56 | 40.72150 | -101.21723 | 8874 ft | 270 kts | 261° |
| 2026-05-07 21:57 | 40.71856 | -101.24203 | 8875 ft | 270 kts | 261° |
| 2026-05-07 21:57 | 40.71566 | -101.26649 | 8871 ft | 271 kts | 262° |
| 2026-05-07 21:57 | 40.71280 | -101.29073 | 8880 ft | 271 kts | 262° |
| 2026-05-07 21:57 | 40.70990 | -101.31521 | 8882 ft | 271 kts | 262° |
| 2026-05-07 21:58 | 40.70697 | -101.33989 | 8869 ft | 270 kts | 262° |
| 2026-05-07 21:58 | 40.70407 | -101.36421 | 8872 ft | 269 kts | 262° |
| 2026-05-07 21:58 | 40.70117 | -101.38846 | 8884 ft | 268 kts | 262° |
| 2026-05-07 21:58 | 40.69830 | -101.41247 | 8886 ft | 266 kts | 261° |
| 2026-05-07 21:59 | 40.69538 | -101.43679 | 8904 ft | 266 kts | 262° |
| 2026-05-07 21:59 | 40.69249 | -101.46093 | 8898 ft | 266 kts | 261° |
| 2026-05-07 21:59 | 40.68958 | -101.48501 | 8894 ft | 267 kts | 262° |
| 2026-05-07 21:59 | 40.68666 | -101.50917 | 8890 ft | 267 kts | 261° |
| 2026-05-07 22:00 | 40.68378 | -101.53311 | 8889 ft | 267 kts | 261° |
| 2026-05-07 22:00 | 40.68088 | -101.55712 | 8894 ft | 267 kts | 261° |
| 2026-05-07 22:00 | 40.67795 | -101.58132 | 8903 ft | 267 kts | 261° |
| 2026-05-07 22:00 | 40.67502 | -101.60552 | 8906 ft | 267 kts | 261° |
| 2026-05-07 22:01 | 40.67207 | -101.62979 | 8900 ft | 270 kts | 262° |
| 2026-05-07 22:01 | 40.66912 | -101.65396 | 8905 ft | 271 kts | 262° |
| 2026-05-07 22:01 | 40.66611 | -101.67880 | 8888 ft | 273 kts | 261° |
| 2026-05-07 22:01 | 40.66309 | -101.70345 | 8883 ft | 272 kts | 261° |
| 2026-05-07 22:02 | 40.66008 | -101.72800 | 8894 ft | 271 kts | 261° |
| 2026-05-07 22:02 | 40.65710 | -101.75224 | 8891 ft | 270 kts | 262° |
| 2026-05-07 22:02 | 40.65410 | -101.77660 | 8869 ft | 269 kts | 261° |
| 2026-05-07 22:02 | 40.65113 | -101.80072 | 8888 ft | 266 kts | 261° |
| 2026-05-07 22:03 | 40.64819 | -101.82457 | 8874 ft | 264 kts | 262° |
| 2026-05-07 22:03 | 40.64523 | -101.84850 | 8887 ft | 264 kts | 261° |
| 2026-05-07 22:03 | 40.64226 | -101.87231 | 8901 ft | 267 kts | 262° |
| 2026-05-07 22:03 | 40.63928 | -101.89674 | 8894 ft | 269 kts | 262° |
| 2026-05-07 22:04 | 40.63633 | -101.92063 | 8881 ft | 268 kts | 262° |
| 2026-05-07 22:04 | 40.63350 | -101.94325 | 8890 ft | 267 kts | 262° |
| 2026-05-07 22:04 | 40.63048 | -101.96747 | 8874 ft | 269 kts | 262° |
| 2026-05-07 22:04 | 40.62742 | -101.99188 | 8865 ft | 268 kts | 262° |
| 2026-05-07 22:05 | 40.62441 | -102.01602 | 8881 ft | 267 kts | 261° |
| 2026-05-07 22:05 | 40.62136 | -102.04012 | 8872 ft | 266 kts | 262° |
| 2026-05-07 22:05 | 40.61834 | -102.06420 | 8859 ft | 267 kts | 262° |
| 2026-05-07 22:05 | 40.61534 | -102.08810 | 8862 ft | 267 kts | 262° |
| 2026-05-07 22:06 | 40.61230 | -102.11235 | 8885 ft | 268 kts | 262° |
| 2026-05-07 22:06 | 40.60926 | -102.13665 | 8871 ft | 269 kts | 262° |
| 2026-05-07 22:06 | 40.60617 | -102.16100 | 8855 ft | 271 kts | 262° |
| 2026-05-07 22:06 | 40.60306 | -102.18549 | 8886 ft | 272 kts | 261° |
| 2026-05-07 22:07 | 40.59994 | -102.20997 | 8840 ft | 272 kts | 262° |
| 2026-05-07 22:07 | 40.59684 | -102.23432 | 8858 ft | 268 kts | 261° |
| 2026-05-07 22:07 | 40.59380 | -102.25812 | 8859 ft | 266 kts | 262° |
| 2026-05-07 22:07 | 40.59075 | -102.28205 | 8847 ft | 265 kts | 262° |
| 2026-05-07 22:08 | 40.58770 | -102.30585 | 8865 ft | 264 kts | 262° |
| 2026-05-07 22:08 | 40.58463 | -102.32987 | 8878 ft | 267 kts | 262° |
| 2026-05-07 22:08 | 40.58154 | -102.35404 | 8874 ft | 271 kts | 262° |
| 2026-05-07 22:08 | 40.57840 | -102.37851 | 8864 ft | 270 kts | 262° |
| 2026-05-07 22:09 | 40.57633 | -102.39460 | 8865 ft | 268 kts | 262° |
| 2026-05-07 22:09 | 40.57322 | -102.41871 | 8871 ft | 266 kts | 262° |
| 2026-05-07 22:09 | 40.57013 | -102.44264 | 8865 ft | 265 kts | 262° |
| 2026-05-07 22:09 | 40.56605 | -102.47421 | 8859 ft | 263 kts | 262° |
| 2026-05-07 22:10 | 40.56296 | -102.49801 | 8870 ft | 265 kts | 262° |
| 2026-05-07 22:10 | 40.55987 | -102.52189 | 8870 ft | 267 kts | 262° |
| 2026-05-07 22:10 | 40.55673 | -102.54607 | 8876 ft | 269 kts | 262° |
| 2026-05-07 22:10 | 40.55462 | -102.56228 | 8880 ft | 270 kts | 262° |
| 2026-05-07 22:11 | 40.55145 | -102.58663 | 8873 ft | 271 kts | 262° |
| 2026-05-07 22:11 | 40.54826 | -102.61105 | 8862 ft | 272 kts | 262° |
| 2026-05-07 22:11 | 40.54505 | -102.63564 | 8867 ft | 271 kts | 263° |
| 2026-05-07 22:11 | 40.54185 | -102.66002 | 8856 ft | 270 kts | 262° |
| 2026-05-07 22:12 | 40.53867 | -102.68421 | 8864 ft | 268 kts | 263° |
| 2026-05-07 22:12 | 40.53448 | -102.71612 | 8875 ft | 267 kts | 262° |
| 2026-05-07 22:12 | 40.53234 | -102.73231 | 8861 ft | 266 kts | 262° |
| 2026-05-07 22:12 | 40.52920 | -102.75617 | 8870 ft | 264 kts | 263° |
| 2026-05-07 22:13 | 40.52504 | -102.78762 | 8875 ft | 264 kts | 262° |
| 2026-05-07 22:13 | 40.52294 | -102.80353 | 8866 ft | 265 kts | 263° |
| 2026-05-07 22:13 | 40.51979 | -102.82735 | 8886 ft | 266 kts | 263° |
| 2026-05-07 22:13 | 40.51662 | -102.85122 | 8878 ft | 267 kts | 263° |
| 2026-05-07 22:14 | 40.51343 | -102.87528 | 8885 ft | 268 kts | 263° |
| 2026-05-07 22:14 | 40.51020 | -102.89949 | 8892 ft | 269 kts | 263° |
| 2026-05-07 22:14 | 40.50695 | -102.92384 | 8883 ft | 271 kts | 263° |
| 2026-05-07 22:14 | 40.50370 | -102.94825 | 8896 ft | 271 kts | 263° |
| 2026-05-07 22:15 | 40.50042 | -102.97275 | 8889 ft | 272 kts | 262° |
| 2026-05-07 22:15 | 40.49719 | -102.99685 | 8894 ft | 272 kts | 262° |
| 2026-05-07 22:15 | 40.49386 | -103.02156 | 8891 ft | 272 kts | 262° |
| 2026-05-07 22:15 | 40.49062 | -103.04569 | 8896 ft | 271 kts | 262° |
| 2026-05-07 22:16 | 40.48734 | -103.07007 | 8905 ft | 272 kts | 262° |
| 2026-05-07 22:16 | 40.48405 | -103.09441 | 8896 ft | 271 kts | 262° |
| 2026-05-07 22:16 | 40.48075 | -103.11873 | 8911 ft | 270 kts | 262° |
| 2026-05-07 22:16 | 40.47745 | -103.14310 | 8908 ft | 269 kts | 263° |
| 2026-05-07 22:17 | 40.47421 | -103.16698 | 8898 ft | 269 kts | 263° |
| 2026-05-07 22:17 | 40.47090 | -103.19136 | 8904 ft | 268 kts | 262° |
| 2026-05-07 22:17 | 40.46764 | -103.21537 | 8898 ft | 267 kts | 263° |
| 2026-05-07 22:17 | 40.46440 | -103.23912 | 8903 ft | 267 kts | 262° |
| 2026-05-07 22:18 | 40.46113 | -103.26304 | 8917 ft | 267 kts | 262° |
| 2026-05-07 22:18 | 40.45456 | -103.31113 | 8920 ft | 269 kts | 262° |
| 2026-05-07 22:18 | 40.45123 | -103.33540 | 8916 ft | 270 kts | 262° |
| 2026-05-07 22:19 | 40.44791 | -103.35961 | 8920 ft | 272 kts | 262° |
| 2026-05-07 22:19 | 40.44455 | -103.38404 | 8917 ft | 272 kts | 262° |
| 2026-05-07 22:19 | 40.44118 | -103.40852 | 8895 ft | 273 kts | 262° |
| 2026-05-07 22:19 | 40.43782 | -103.43281 | 8910 ft | 272 kts | 262° |
| 2026-05-07 22:20 | 40.43442 | -103.45746 | 8894 ft | 272 kts | 262° |
| 2026-05-07 22:20 | 40.43108 | -103.48151 | 8880 ft | 272 kts | 262° |
| 2026-05-07 22:20 | 40.42769 | -103.50595 | 8892 ft | 271 kts | 262° |
| 2026-05-07 22:20 | 40.42431 | -103.53024 | 8888 ft | 270 kts | 262° |
| 2026-05-07 22:21 | 40.42094 | -103.55443 | 8893 ft | 269 kts | 262° |
| 2026-05-07 22:21 | 40.41760 | -103.57843 | 8930 ft | 266 kts | 262° |
| 2026-05-07 22:21 | 40.41428 | -103.60216 | 8905 ft | 258 kts | 262° |
| 2026-05-07 22:21 | 40.41114 | -103.62450 | 8905 ft | 240 kts | 262° |
| 2026-05-07 22:22 | 40.40823 | -103.64517 | 8902 ft | 221 kts | 262° |
| 2026-05-07 22:22 | 40.40557 | -103.66399 | 8892 ft | 204 kts | 263° |
| 2026-05-07 22:22 | 40.40299 | -103.68244 | 8926 ft | 209 kts | 262° |
| 2026-05-07 22:22 | 40.40034 | -103.70149 | 8928 ft | 215 kts | 262° |
| 2026-05-07 22:23 | 40.39762 | -103.72087 | 8920 ft | 215 kts | 262° |
| 2026-05-07 22:23 | 40.39492 | -103.74008 | 8933 ft | 213 kts | 262° |
| 2026-05-07 22:23 | 40.39224 | -103.75914 | 8919 ft | 213 kts | 262° |
| 2026-05-07 22:23 | 40.38957 | -103.77804 | 8930 ft | 214 kts | 263° |
| 2026-05-07 22:24 | 40.38684 | -103.79735 | 8928 ft | 212 kts | 262° |
| 2026-05-07 22:24 | 40.38418 | -103.81617 | 8923 ft | 214 kts | 262° |
| 2026-05-07 22:24 | 40.38146 | -103.83536 | 8926 ft | 215 kts | 262° |
| 2026-05-07 22:24 | 40.37873 | -103.85454 | 8920 ft | 212 kts | 262° |
| 2026-05-07 22:25 | 40.37604 | -103.87347 | 8919 ft | 213 kts | 262° |
| 2026-05-07 22:25 | 40.37331 | -103.89276 | 8927 ft | 215 kts | 263° |
| 2026-05-07 22:25 | 40.37057 | -103.91200 | 8918 ft | 214 kts | 262° |
| 2026-05-07 22:25 | 40.36784 | -103.93118 | 8932 ft | 214 kts | 262° |
| 2026-05-07 22:26 | 40.36511 | -103.95032 | 8929 ft | 215 kts | 262° |
| 2026-05-07 22:26 | 40.36233 | -103.96970 | 8918 ft | 216 kts | 262° |
| 2026-05-07 22:26 | 40.35960 | -103.98879 | 8901 ft | 214 kts | 262° |
| 2026-05-07 22:26 | 40.35411 | -104.00699 | 8890 ft | 217 kts | 237° |
| 2026-05-07 22:27 | 40.34404 | -104.02215 | 8913 ft | 228 kts | 231° |
| 2026-05-07 22:27 | 40.33300 | -104.03696 | 8881 ft | 225 kts | 229° |
| 2026-05-07 22:27 | 40.32216 | -104.05131 | 8889 ft | 222 kts | 230° |
| 2026-05-07 22:27 | 40.31129 | -104.06586 | 8886 ft | 224 kts | 230° |
| 2026-05-07 22:28 | 40.30041 | -104.08049 | 8896 ft | 224 kts | 230° |
| 2026-05-07 22:28 | 40.28953 | -104.09514 | 8880 ft | 224 kts | 231° |
| 2026-05-07 22:28 | 40.27873 | -104.10971 | 8892 ft | 224 kts | 230° |
| 2026-05-07 22:28 | 40.26783 | -104.12442 | 8883 ft | 223 kts | 231° |
| 2026-05-07 22:29 | 40.25700 | -104.13905 | 8877 ft | 224 kts | 231° |
| 2026-05-07 22:29 | 40.24634 | -104.15342 | 8854 ft | 223 kts | 231° |
| 2026-05-07 22:29 | 40.23552 | -104.16801 | 8884 ft | 225 kts | 230° |
| 2026-05-07 22:29 | 40.22453 | -104.18283 | 8856 ft | 223 kts | 230° |
| 2026-05-07 22:30 | 40.21389 | -104.19716 | 8866 ft | 222 kts | 230° |
| 2026-05-07 22:30 | 40.20309 | -104.21171 | 8860 ft | 224 kts | 230° |
| 2026-05-07 22:30 | 40.19220 | -104.22639 | 8856 ft | 225 kts | 230° |
| 2026-05-07 22:30 | 40.18136 | -104.24096 | 8834 ft | 223 kts | 230° |
| 2026-05-07 22:31 | 40.17050 | -104.25558 | 8856 ft | 224 kts | 230° |
| 2026-05-07 22:31 | 40.15963 | -104.27020 | 8846 ft | 225 kts | 230° |
| 2026-05-07 22:31 | 40.14896 | -104.28454 | 8856 ft | 224 kts | 230° |
| 2026-05-07 22:31 | 40.13802 | -104.29924 | 8858 ft | 226 kts | 230° |
| 2026-05-07 22:32 | 40.12707 | -104.31394 | 8860 ft | 226 kts | 230° |
| 2026-05-07 22:32 | 40.11618 | -104.32854 | 8856 ft | 224 kts | 230° |
| 2026-05-07 22:32 | 40.10519 | -104.34331 | 8716 ft | 228 kts | 230° |
| 2026-05-07 22:32 | 40.09428 | -104.35795 | 8574 ft | 227 kts | 230° |
| 2026-05-07 22:33 | 40.08326 | -104.37268 | 8392 ft | 223 kts | 230° |
| 2026-05-07 22:33 | 40.07256 | -104.38703 | 8242 ft | 224 kts | 230° |
| 2026-05-07 22:33 | 40.06160 | -104.40173 | 8066 ft | 225 kts | 230° |
| 2026-05-07 22:33 | 40.05071 | -104.41625 | 7911 ft | 224 kts | 231° |
| 2026-05-07 22:34 | 40.03993 | -104.43084 | 7752 ft | 223 kts | 230° |
| 2026-05-07 22:34 | 40.02939 | -104.44495 | 7599 ft | 226 kts | 230° |
| 2026-05-07 22:34 | 40.01831 | -104.45970 | 7417 ft | 225 kts | 230° |
| 2026-05-07 22:34 | 40.00759 | -104.47401 | 7263 ft | 222 kts | 230° |
| 2026-05-07 22:35 | 39.99892 | -104.48553 | 7110 ft | 222 kts | 230° |
| 2026-05-07 22:35 | 39.99149 | -104.49544 | 7038 ft | 223 kts | 230° |
| 2026-05-07 22:35 | 39.98065 | -104.50985 | 7004 ft | 226 kts | 230° |
| 2026-05-07 22:36 | 39.97625 | -104.51573 | 6992 ft | 226 kts | 230° |
| 2026-05-07 22:37 | 39.97452 | -104.51804 | 6988 ft | 226 kts | 230° |
| 2026-05-07 22:37 | 39.96710 | -104.52686 | 6974 ft | 225 kts | 219° |
| 2026-05-07 22:38 | 39.95860 | -104.53307 | 6981 ft | 226 kts | 208° |
| 2026-05-07 22:38 | 39.94412 | -104.54014 | 6964 ft | 228 kts | 200° |
| 2026-05-07 22:38 | 39.92823 | -104.54443 | 6830 ft | 236 kts | 191° |
| 2026-05-07 22:39 | 39.91243 | -104.54498 | 6818 ft | 218 kts | 179° |
| 2026-05-07 22:39 | 39.89808 | -104.54267 | 6807 ft | 197 kts | 182° |
| 2026-05-07 22:39 | 39.88547 | -104.54570 | 6828 ft | 178 kts | 220° |
| 2026-05-07 22:39 | 39.87730 | -104.55688 | 6907 ft | 176 kts | 228° |
| 2026-05-07 22:40 | 39.86533 | -104.56101 | 6843 ft | 187 kts | 173° |
| 2026-05-07 22:40 | 39.85370 | -104.55136 | 6158 ft | 216 kts | 119° |
| 2026-05-07 22:40 | 39.85105 | -104.53440 | 6422 ft | 179 kts | 91° |
| 2026-05-07 22:40 | 39.85047 | -104.51859 | 6503 ft | 181 kts | 93° |
| 2026-05-07 22:41 | 39.84784 | -104.50199 | 6542 ft | 198 kts | 107° |
| 2026-05-07 22:41 | 39.84243 | -104.48549 | 6490 ft | 198 kts | 120° |
| 2026-05-07 22:41 | 39.83771 | -104.46924 | 6451 ft | 185 kts | 85° |
| 2026-05-07 22:41 | 39.84247 | -104.45494 | 6411 ft | 175 kts | 45° |
| 2026-05-07 22:42 | 39.84998 | -104.44171 | 6437 ft | 195 kts | 51° |
| 2026-05-07 22:42 | 39.85402 | -104.43306 | 6444 ft | 200 kts | 58° |
| 2026-05-07 22:43 | 39.85799 | -104.42187 | 6380 ft | 203 kts | 64° |
| 2026-05-07 22:43 | 39.86218 | -104.40488 | 6393 ft | 195 kts | 73° |
| 2026-05-07 22:44 | 39.86461 | -104.38744 | 6391 ft | 198 kts | 80° |
| 2026-05-07 22:44 | 39.86541 | -104.36963 | 6400 ft | 200 kts | 89° |
| 2026-05-07 22:44 | 39.86497 | -104.35169 | 6385 ft | 197 kts | 90° |
| 2026-05-07 22:44 | 39.86281 | -104.33411 | 6356 ft | 197 kts | 107° |
| 2026-05-07 22:45 | 39.85590 | -104.31880 | 6369 ft | 198 kts | 134° |
| 2026-05-07 22:45 | 39.84524 | -104.30896 | 6685 ft | 175 kts | 158° |
| 2026-05-07 22:45 | 39.83371 | -104.30398 | 6952 ft | 183 kts | 174° |
| 2026-05-07 22:45 | 39.82060 | -104.30273 | 6986 ft | 197 kts | 187° |
| 2026-05-07 22:46 | 39.80718 | -104.30610 | 6967 ft | 191 kts | 206° |
| 2026-05-07 22:46 | 39.79578 | -104.31368 | 6971 ft | 178 kts | 221° |
| 2026-05-07 22:46 | 39.78688 | -104.32417 | 6979 ft | 173 kts | 236° |
| 2026-05-07 22:46 | 39.77966 | -104.33655 | 7008 ft | 173 kts | 243° |
| 2026-05-07 22:47 | 39.77397 | -104.35026 | 6991 ft | 170 kts | 252° |
| 2026-05-07 22:47 | 39.77151 | -104.36478 | 6974 ft | 162 kts | 280° |
| 2026-05-07 22:47 | 39.77738 | -104.37613 | 7028 ft | 154 kts | 316° |
| 2026-05-07 22:47 | 39.78509 | -104.38575 | 7020 ft | 154 kts | 312° |
| 2026-05-07 22:48 | 39.79265 | -104.39572 | 7001 ft | 155 kts | 312° |
| 2026-05-07 22:48 | 39.80013 | -104.40564 | 7021 ft | 155 kts | 313° |
| 2026-05-07 22:48 | 39.80768 | -104.41566 | 7015 ft | 153 kts | 311° |
| 2026-05-07 22:48 | 39.81494 | -104.42531 | 7006 ft | 147 kts | 312° |
| 2026-05-07 22:49 | 39.82211 | -104.43484 | 7024 ft | 151 kts | 313° |
| 2026-05-07 22:49 | 39.82984 | -104.44515 | 7019 ft | 162 kts | 312° |
| 2026-05-07 22:49 | 39.83749 | -104.45537 | 7013 ft | 157 kts | 312° |
| 2026-05-07 22:49 | 39.84492 | -104.46527 | 7007 ft | 150 kts | 311° |
| 2026-05-07 22:50 | 39.85248 | -104.47531 | 7027 ft | 159 kts | 313° |
| 2026-05-07 22:50 | 39.86015 | -104.48551 | 7019 ft | 157 kts | 312° |
| 2026-05-07 22:50 | 39.86782 | -104.49529 | 7003 ft | 155 kts | 316° |
| 2026-05-07 22:50 | 39.87397 | -104.50695 | 7036 ft | 159 kts | 288° |
| 2026-05-07 22:51 | 39.87594 | -104.52132 | 6807 ft | 168 kts | 275° |
| 2026-05-07 22:51 | 39.87653 | -104.53615 | 6609 ft | 160 kts | 274° |
| 2026-05-07 22:51 | 39.87665 | -104.55060 | 6223 ft | 157 kts | 273° |
| 2026-05-07 22:51 | 39.87693 | -104.56453 | 5937 ft | 150 kts | 271° |
| 2026-05-07 22:52 | 39.87694 | -104.57762 | 5745 ft | 143 kts | 271° |
| 2026-05-07 22:52 | 39.87699 | -104.59082 | 5651 ft | 152 kts | 271° |
| 2026-05-07 22:52 | 39.87707 | -104.60506 | 5620 ft | 165 kts | 271° |
| 2026-05-07 22:52 | 39.87713 | -104.62004 | 5453 ft | 163 kts | 274° |
| 2026-05-07 22:53 | 39.87728 | -104.63385 | 5322 ft | 126 kts | 275° |
| 2026-05-07 22:53 | 39.87751 | -104.63914 | 5320 ft | 0 kts | 268° |